sensor_id;sensor_type;location;lat;lon;timestamp;temperature;humidity
77613;DHT22;66777;52.282;5.960;2023-07-20T00:00:49;17.80;81.80
77613;DHT22;66777;52.282;5.960;2023-07-20T00:03:19;17.80;81.90
77613;DHT22;66777;52.282;5.960;2023-07-20T00:05:48;17.80;81.60
77613;DHT22;66777;52.282;5.960;2023-07-20T00:08:14;17.80;81.50
77613;DHT22;66777;52.282;5.960;2023-07-20T00:10:41;17.80;81.50
77613;DHT22;66777;52.282;5.960;2023-07-20T00:13:06;17.80;81.50
77613;DHT22;66777;52.282;5.960;2023-07-20T00:15:32;17.70;81.60
77613;DHT22;66777;52.282;5.960;2023-07-20T00:17:58;17.70;81.90
77613;DHT22;66777;52.282;5.960;2023-07-20T00:20:24;17.80;81.70
77613;DHT22;66777;52.282;5.960;2023-07-20T00:22:51;17.80;81.80
77613;DHT22;66777;52.282;5.960;2023-07-20T00:25:20;17.80;81.80
77613;DHT22;66777;52.282;5.960;2023-07-20T00:27:46;17.80;81.80
77613;DHT22;66777;52.282;5.960;2023-07-20T00:30:12;17.80;81.60
77613;DHT22;66777;52.282;5.960;2023-07-20T00:32:38;17.80;81.50
77613;DHT22;66777;52.282;5.960;2023-07-20T00:35:04;17.80;81.70
77613;DHT22;66777;52.282;5.960;2023-07-20T00:37:29;17.80;81.70
77613;DHT22;66777;52.282;5.960;2023-07-20T00:39:55;17.80;81.60
77613;DHT22;66777;52.282;5.960;2023-07-20T00:42:21;17.80;81.70
77613;DHT22;66777;52.282;5.960;2023-07-20T00:44:47;17.70;81.80
77613;DHT22;66777;52.282;5.960;2023-07-20T00:47:13;17.70;81.60
77613;DHT22;66777;52.282;5.960;2023-07-20T00:49:39;17.70;81.70
77613;DHT22;66777;52.282;5.960;2023-07-20T00:52:07;17.60;81.70
77613;DHT22;66777;52.282;5.960;2023-07-20T00:54:33;17.60;81.80
77613;DHT22;66777;52.282;5.960;2023-07-20T00:57:01;17.60;81.60
77613;DHT22;66777;52.282;5.960;2023-07-20T00:59:27;17.70;81.50
77613;DHT22;66777;52.282;5.960;2023-07-20T01:01:52;17.60;81.60
77613;DHT22;66777;52.282;5.960;2023-07-20T01:04:19;17.60;81.40
77613;DHT22;66777;52.282;5.960;2023-07-20T01:14:29;17.50;81.30
77613;DHT22;66777;52.282;5.960;2023-07-20T01:16:57;17.40;81.40
77613;DHT22;66777;52.282;5.960;2023-07-20T01:19:22;17.40;81.50
77613;DHT22;66777;52.282;5.960;2023-07-20T01:21:57;17.40;81.60
77613;DHT22;66777;52.282;5.960;2023-07-20T01:32:59;17.20;81.70
77613;DHT22;66777;52.282;5.960;2023-07-20T01:35:29;17.20;81.70
77613;DHT22;66777;52.282;5.960;2023-07-20T01:37:55;17.20;81.50
77613;DHT22;66777;52.282;5.960;2023-07-20T01:40:25;17.20;81.60
77613;DHT22;66777;52.282;5.960;2023-07-20T01:42:52;17.20;81.50
77613;DHT22;66777;52.282;5.960;2023-07-20T01:45:19;17.20;81.50
77613;DHT22;66777;52.282;5.960;2023-07-20T01:47:44;17.20;81.30
77613;DHT22;66777;52.282;5.960;2023-07-20T01:50:10;17.20;81.50
77613;DHT22;66777;52.282;5.960;2023-07-20T01:52:36;17.20;81.40
77613;DHT22;66777;52.282;5.960;2023-07-20T01:55:01;17.20;81.50
77613;DHT22;66777;52.282;5.960;2023-07-20T01:57:27;17.20;81.50
77613;DHT22;66777;52.282;5.960;2023-07-20T01:59:52;17.20;81.50
77613;DHT22;66777;52.282;5.960;2023-07-20T02:02:18;17.20;81.50
77613;DHT22;66777;52.282;5.960;2023-07-20T02:04:45;17.20;81.40
77613;DHT22;66777;52.282;5.960;2023-07-20T02:07:11;17.20;81.20
77613;DHT22;66777;52.282;5.960;2023-07-20T02:09:37;17.20;81.20
77613;DHT22;66777;52.282;5.960;2023-07-20T02:12:02;17.20;81.40
77613;DHT22;66777;52.282;5.960;2023-07-20T02:14:28;17.20;81.10
77613;DHT22;66777;52.282;5.960;2023-07-20T02:16:54;17.00;81.30
77613;DHT22;66777;52.282;5.960;2023-07-20T02:19:25;17.00;81.30
77613;DHT22;66777;52.282;5.960;2023-07-20T02:21:51;16.90;81.40
77613;DHT22;66777;52.282;5.960;2023-07-20T02:24:17;16.90;81.30
77613;DHT22;66777;52.282;5.960;2023-07-20T02:26:42;16.80;81.30
77613;DHT22;66777;52.282;5.960;2023-07-20T02:29:09;16.70;81.30
77613;DHT22;66777;52.282;5.960;2023-07-20T02:31:37;16.70;81.30
77613;DHT22;66777;52.282;5.960;2023-07-20T02:34:05;16.70;81.40
77613;DHT22;66777;52.282;5.960;2023-07-20T02:36:31;16.70;81.20
77613;DHT22;66777;52.282;5.960;2023-07-20T02:38:58;16.70;81.10
77613;DHT22;66777;52.282;5.960;2023-07-20T02:41:24;16.70;80.90
77613;DHT22;66777;52.282;5.960;2023-07-20T02:43:50;16.70;80.90
77613;DHT22;66777;52.282;5.960;2023-07-20T02:46:15;16.80;80.80
77613;DHT22;66777;52.282;5.960;2023-07-20T02:48:41;16.80;80.70
77613;DHT22;66777;52.282;5.960;2023-07-20T02:51:06;16.90;80.50
77613;DHT22;66777;52.282;5.960;2023-07-20T02:53:33;16.90;80.20
77613;DHT22;66777;52.282;5.960;2023-07-20T02:55:59;16.70;80.50
77613;DHT22;66777;52.282;5.960;2023-07-20T02:58:24;16.70;80.70
77613;DHT22;66777;52.282;5.960;2023-07-20T03:00:50;16.70;80.70
77613;DHT22;66777;52.282;5.960;2023-07-20T03:03:16;16.70;80.50
77613;DHT22;66777;52.282;5.960;2023-07-20T03:05:42;16.60;80.30
77613;DHT22;66777;52.282;5.960;2023-07-20T03:08:07;16.60;80.70
77613;DHT22;66777;52.282;5.960;2023-07-20T03:10:38;16.70;80.60
77613;DHT22;66777;52.282;5.960;2023-07-20T03:13:04;16.80;80.30
77613;DHT22;66777;52.282;5.960;2023-07-20T03:15:30;16.80;80.20
77613;DHT22;66777;52.282;5.960;2023-07-20T03:17:56;16.80;80.00
77613;DHT22;66777;52.282;5.960;2023-07-20T03:20:24;16.80;80.00
77613;DHT22;66777;52.282;5.960;2023-07-20T03:22:49;16.70;79.90
77613;DHT22;66777;52.282;5.960;2023-07-20T03:25:15;16.60;80.00
77613;DHT22;66777;52.282;5.960;2023-07-20T03:27:40;16.50;80.00
77613;DHT22;66777;52.282;5.960;2023-07-20T03:30:06;16.50;80.00
77613;DHT22;66777;52.282;5.960;2023-07-20T03:32:32;16.40;79.70
77613;DHT22;66777;52.282;5.960;2023-07-20T03:34:58;16.40;80.00
77613;DHT22;66777;52.282;5.960;2023-07-20T03:37:24;16.40;79.90
77613;DHT22;66777;52.282;5.960;2023-07-20T03:39:49;16.40;79.90
77613;DHT22;66777;52.282;5.960;2023-07-20T03:42:15;16.50;79.60
77613;DHT22;66777;52.282;5.960;2023-07-20T03:44:40;16.50;79.50
77613;DHT22;66777;52.282;5.960;2023-07-20T03:47:06;16.50;79.40
77613;DHT22;66777;52.282;5.960;2023-07-20T03:49:32;16.50;79.30
77613;DHT22;66777;52.282;5.960;2023-07-20T03:51:57;16.50;79.30
77613;DHT22;66777;52.282;5.960;2023-07-20T03:54:23;16.50;79.10
77613;DHT22;66777;52.282;5.960;2023-07-20T03:56:48;16.50;79.00
77613;DHT22;66777;52.282;5.960;2023-07-20T03:59:14;16.40;79.00
77613;DHT22;66777;52.282;5.960;2023-07-20T04:01:40;16.10;79.20
77613;DHT22;66777;52.282;5.960;2023-07-20T04:04:07;16.00;79.40
77613;DHT22;66777;52.282;5.960;2023-07-20T04:06:33;16.00;79.60
77613;DHT22;66777;52.282;5.960;2023-07-20T04:08:59;16.10;79.00
77613;DHT22;66777;52.282;5.960;2023-07-20T04:11:24;16.00;78.90
77613;DHT22;66777;52.282;5.960;2023-07-20T04:13:50;16.00;79.10
77613;DHT22;66777;52.282;5.960;2023-07-20T04:16:16;16.00;79.00
77613;DHT22;66777;52.282;5.960;2023-07-20T04:18:41;15.80;79.00
77613;DHT22;66777;52.282;5.960;2023-07-20T04:21:10;15.80;78.90
77613;DHT22;66777;52.282;5.960;2023-07-20T04:23:36;15.70;78.80
77613;DHT22;66777;52.282;5.960;2023-07-20T04:26:02;15.60;78.70
77613;DHT22;66777;52.282;5.960;2023-07-20T04:28:27;15.50;78.70
77613;DHT22;66777;52.282;5.960;2023-07-20T04:30:53;15.40;78.70
77613;DHT22;66777;52.282;5.960;2023-07-20T04:33:19;15.30;78.60
77613;DHT22;66777;52.282;5.960;2023-07-20T04:35:51;15.30;78.70
77613;DHT22;66777;52.282;5.960;2023-07-20T04:38:20;15.40;78.70
77613;DHT22;66777;52.282;5.960;2023-07-20T04:40:48;15.60;78.20
77613;DHT22;66777;52.282;5.960;2023-07-20T04:43:15;15.50;78.20
77613;DHT22;66777;52.282;5.960;2023-07-20T04:45:41;15.50;78.30
77613;DHT22;66777;52.282;5.960;2023-07-20T04:48:12;15.40;78.20
77613;DHT22;66777;52.282;5.960;2023-07-20T04:50:40;15.40;78.40
77613;DHT22;66777;52.282;5.960;2023-07-20T04:53:06;15.50;78.30
77613;DHT22;66777;52.282;5.960;2023-07-20T04:55:32;15.60;78.30
77613;DHT22;66777;52.282;5.960;2023-07-20T04:58:00;15.80;78.00
77613;DHT22;66777;52.282;5.960;2023-07-20T05:00:26;15.90;77.70
77613;DHT22;66777;52.282;5.960;2023-07-20T05:02:52;16.00;77.60
77613;DHT22;66777;52.282;5.960;2023-07-20T05:05:17;16.00;77.70
77613;DHT22;66777;52.282;5.960;2023-07-20T05:07:43;16.00;77.80
77613;DHT22;66777;52.282;5.960;2023-07-20T05:10:09;16.10;77.70
77613;DHT22;66777;52.282;5.960;2023-07-20T05:12:35;16.10;77.90
77613;DHT22;66777;52.282;5.960;2023-07-20T05:15:02;16.20;77.90
77613;DHT22;66777;52.282;5.960;2023-07-20T05:17:28;16.20;77.90
77613;DHT22;66777;52.282;5.960;2023-07-20T05:19:55;16.20;78.00
77613;DHT22;66777;52.282;5.960;2023-07-20T05:22:21;16.20;78.10
77613;DHT22;66777;52.282;5.960;2023-07-20T05:24:47;16.30;78.20
77613;DHT22;66777;52.282;5.960;2023-07-20T05:27:14;16.30;78.20
77613;DHT22;66777;52.282;5.960;2023-07-20T05:29:44;16.40;78.20
77613;DHT22;66777;52.282;5.960;2023-07-20T05:32:10;16.40;78.30
77613;DHT22;66777;52.282;5.960;2023-07-20T05:34:35;16.40;78.40
77613;DHT22;66777;52.282;5.960;2023-07-20T05:37:01;16.40;78.30
77613;DHT22;66777;52.282;5.960;2023-07-20T05:39:28;16.40;78.20
77613;DHT22;66777;52.282;5.960;2023-07-20T05:41:53;16.40;78.30
77613;DHT22;66777;52.282;5.960;2023-07-20T05:44:19;16.40;78.40
77613;DHT22;66777;52.282;5.960;2023-07-20T05:46:45;16.40;78.40
77613;DHT22;66777;52.282;5.960;2023-07-20T05:49:10;16.40;78.60
77613;DHT22;66777;52.282;5.960;2023-07-20T05:51:37;16.50;78.60
77613;DHT22;66777;52.282;5.960;2023-07-20T05:54:03;16.60;78.40
77613;DHT22;66777;52.282;5.960;2023-07-20T05:56:29;16.70;78.10
77613;DHT22;66777;52.282;5.960;2023-07-20T05:58:54;16.70;78.00
77613;DHT22;66777;52.282;5.960;2023-07-20T06:01:20;16.70;77.90
77613;DHT22;66777;52.282;5.960;2023-07-20T06:03:46;16.80;77.80
77613;DHT22;66777;52.282;5.960;2023-07-20T06:06:11;16.80;77.70
77613;DHT22;66777;52.282;5.960;2023-07-20T06:08:38;16.80;77.80
77613;DHT22;66777;52.282;5.960;2023-07-20T06:11:03;16.90;77.80
77613;DHT22;66777;52.282;5.960;2023-07-20T06:13:29;16.90;77.80
77613;DHT22;66777;52.282;5.960;2023-07-20T06:15:55;16.90;77.50
77613;DHT22;66777;52.282;5.960;2023-07-20T06:18:22;17.00;77.20
77613;DHT22;66777;52.282;5.960;2023-07-20T06:20:51;17.00;77.00
77613;DHT22;66777;52.282;5.960;2023-07-20T06:23:18;17.00;76.90
77613;DHT22;66777;52.282;5.960;2023-07-20T06:25:46;17.00;76.90
77613;DHT22;66777;52.282;5.960;2023-07-20T06:28:13;17.10;76.80
77613;DHT22;66777;52.282;5.960;2023-07-20T06:30:39;17.20;76.60
77613;DHT22;66777;52.282;5.960;2023-07-20T06:33:05;17.20;76.40
77613;DHT22;66777;52.282;5.960;2023-07-20T06:35:31;17.30;76.00
77613;DHT22;66777;52.282;5.960;2023-07-20T06:37:56;17.40;75.80
77613;DHT22;66777;52.282;5.960;2023-07-20T06:40:24;17.40;75.70
77613;DHT22;66777;52.282;5.960;2023-07-20T06:42:50;17.50;75.40
77613;DHT22;66777;52.282;5.960;2023-07-20T06:45:17;17.50;75.00
77613;DHT22;66777;52.282;5.960;2023-07-20T06:47:42;17.50;74.70
77613;DHT22;66777;52.282;5.960;2023-07-20T06:50:09;17.60;74.50
77613;DHT22;66777;52.282;5.960;2023-07-20T06:52:36;17.60;74.20
77613;DHT22;66777;52.282;5.960;2023-07-20T06:55:05;17.70;74.10
77613;DHT22;66777;52.282;5.960;2023-07-20T06:57:32;17.80;73.90
77613;DHT22;66777;52.282;5.960;2023-07-20T06:59:58;17.80;73.80
77613;DHT22;66777;52.282;5.960;2023-07-20T07:02:24;18.00;73.50
77613;DHT22;66777;52.282;5.960;2023-07-20T07:04:50;18.00;73.00
77613;DHT22;66777;52.282;5.960;2023-07-20T07:07:16;18.00;72.90
77613;DHT22;66777;52.282;5.960;2023-07-20T07:09:44;18.00;72.70
77613;DHT22;66777;52.282;5.960;2023-07-20T07:12:11;18.10;72.60
77613;DHT22;66777;52.282;5.960;2023-07-20T07:14:36;18.20;72.50
77613;DHT22;66777;52.282;5.960;2023-07-20T07:17:02;18.20;72.00
77613;DHT22;66777;52.282;5.960;2023-07-20T07:19:28;18.20;71.80
77613;DHT22;66777;52.282;5.960;2023-07-20T07:21:54;18.20;71.40
77613;DHT22;66777;52.282;5.960;2023-07-20T07:24:19;18.20;71.00
77613;DHT22;66777;52.282;5.960;2023-07-20T07:26:45;18.30;70.70
77613;DHT22;66777;52.282;5.960;2023-07-20T07:29:11;18.40;70.40
77613;DHT22;66777;52.282;5.960;2023-07-20T07:31:37;18.40;70.50
77613;DHT22;66777;52.282;5.960;2023-07-20T07:34:03;18.50;70.50
77613;DHT22;66777;52.282;5.960;2023-07-20T07:36:31;18.60;70.30
77613;DHT22;66777;52.282;5.960;2023-07-20T07:38:56;18.60;70.00
77613;DHT22;66777;52.282;5.960;2023-07-20T07:41:22;18.60;69.80
77613;DHT22;66777;52.282;5.960;2023-07-20T07:43:49;18.60;69.80
77613;DHT22;66777;52.282;5.960;2023-07-20T07:46:15;18.80;69.30
77613;DHT22;66777;52.282;5.960;2023-07-20T07:48:42;18.80;68.90
77613;DHT22;66777;52.282;5.960;2023-07-20T07:51:08;18.80;68.80
77613;DHT22;66777;52.282;5.960;2023-07-20T07:53:34;18.80;68.80
77613;DHT22;66777;52.282;5.960;2023-07-20T07:56:02;18.90;68.50
77613;DHT22;66777;52.282;5.960;2023-07-20T07:58:28;18.90;68.10
77613;DHT22;66777;52.282;5.960;2023-07-20T08:00:54;18.80;68.00
77613;DHT22;66777;52.282;5.960;2023-07-20T08:03:20;18.80;67.90
77613;DHT22;66777;52.282;5.960;2023-07-20T08:05:45;18.90;67.60
77613;DHT22;66777;52.282;5.960;2023-07-20T08:08:11;18.90;67.60
77613;DHT22;66777;52.282;5.960;2023-07-20T08:10:37;19.00;67.50
77613;DHT22;66777;52.282;5.960;2023-07-20T08:13:02;19.10;67.20
77613;DHT22;66777;52.282;5.960;2023-07-20T08:15:28;19.20;66.90
77613;DHT22;66777;52.282;5.960;2023-07-20T08:17:58;19.30;66.60
77613;DHT22;66777;52.282;5.960;2023-07-20T08:20:25;19.40;66.10
77613;DHT22;66777;52.282;5.960;2023-07-20T08:22:56;19.50;65.70
77613;DHT22;66777;52.282;5.960;2023-07-20T08:25:23;19.70;65.00
77613;DHT22;66777;52.282;5.960;2023-07-20T08:27:55;19.90;64.50
77613;DHT22;66777;52.282;5.960;2023-07-20T08:30:21;20.00;63.70
77613;DHT22;66777;52.282;5.960;2023-07-20T08:32:48;20.00;63.30
77613;DHT22;66777;52.282;5.960;2023-07-20T08:35:14;20.00;63.20
77613;DHT22;66777;52.282;5.960;2023-07-20T08:37:41;20.30;63.00
77613;DHT22;66777;52.282;5.960;2023-07-20T08:40:07;20.30;62.90
77613;DHT22;66777;52.282;5.960;2023-07-20T08:42:34;20.40;62.80
77613;DHT22;66777;52.282;5.960;2023-07-20T08:45:00;20.50;62.70
77613;DHT22;66777;52.282;5.960;2023-07-20T08:47:30;20.50;62.60
77613;DHT22;66777;52.282;5.960;2023-07-20T08:49:56;20.30;62.60
77613;DHT22;66777;52.282;5.960;2023-07-20T08:52:22;20.10;62.80
77613;DHT22;66777;52.282;5.960;2023-07-20T08:54:47;19.90;63.10
77613;DHT22;66777;52.282;5.960;2023-07-20T08:57:14;19.90;63.40
77613;DHT22;66777;52.282;5.960;2023-07-20T08:59:41;20.50;62.50
77613;DHT22;66777;52.282;5.960;2023-07-20T09:02:08;21.00;61.50
77613;DHT22;66777;52.282;5.960;2023-07-20T09:04:34;21.10;60.70
77613;DHT22;66777;52.282;5.960;2023-07-20T09:07:06;21.30;60.50
77613;DHT22;66777;52.282;5.960;2023-07-20T09:09:32;21.40;60.40
77613;DHT22;66777;52.282;5.960;2023-07-20T09:11:58;21.50;60.20
77613;DHT22;66777;52.282;5.960;2023-07-20T09:14:23;21.50;60.40
77613;DHT22;66777;52.282;5.960;2023-07-20T09:16:56;21.50;60.30
77613;DHT22;66777;52.282;5.960;2023-07-20T09:19:22;21.40;60.00
77613;DHT22;66777;52.282;5.960;2023-07-20T09:21:51;21.50;59.40
77613;DHT22;66777;52.282;5.960;2023-07-20T09:24:19;21.50;58.90
77613;DHT22;66777;52.282;5.960;2023-07-20T09:26:47;21.50;58.70
77613;DHT22;66777;52.282;5.960;2023-07-20T09:29:20;21.30;58.30
77613;DHT22;66777;52.282;5.960;2023-07-20T09:32:05;21.10;58.40
77613;DHT22;66777;52.282;5.960;2023-07-20T09:34:32;20.90;58.30
77613;DHT22;66777;52.282;5.960;2023-07-20T09:37:00;20.80;58.50
77613;DHT22;66777;52.282;5.960;2023-07-20T09:39:27;20.80;58.50
77613;DHT22;66777;52.282;5.960;2023-07-20T09:41:52;20.70;58.70
77613;DHT22;66777;52.282;5.960;2023-07-20T09:44:19;20.80;58.70
77613;DHT22;66777;52.282;5.960;2023-07-20T09:46:48;20.80;58.50
77613;DHT22;66777;52.282;5.960;2023-07-20T09:49:14;20.70;58.60
77613;DHT22;66777;52.282;5.960;2023-07-20T09:51:41;20.60;58.90
77613;DHT22;66777;52.282;5.960;2023-07-20T09:54:09;20.60;59.10
77613;DHT22;66777;52.282;5.960;2023-07-20T09:56:35;20.70;59.20
77613;DHT22;66777;52.282;5.960;2023-07-20T09:59:01;20.90;58.90
77613;DHT22;66777;52.282;5.960;2023-07-20T10:01:29;21.20;58.30
77613;DHT22;66777;52.282;5.960;2023-07-20T10:03:58;21.40;57.70
77613;DHT22;66777;52.282;5.960;2023-07-20T10:06:28;21.70;57.40
77613;DHT22;66777;52.282;5.960;2023-07-20T10:09:01;21.90;56.90
77613;DHT22;66777;52.282;5.960;2023-07-20T10:11:30;22.30;55.70
77613;DHT22;66777;52.282;5.960;2023-07-20T10:13:59;22.80;54.50
77613;DHT22;66777;52.282;5.960;2023-07-20T10:16:35;23.10;53.40
77613;DHT22;66777;52.282;5.960;2023-07-20T10:19:07;23.20;52.60
77613;DHT22;66777;52.282;5.960;2023-07-20T10:21:35;23.10;52.40
77613;DHT22;66777;52.282;5.960;2023-07-20T10:24:05;23.20;52.40
77613;DHT22;66777;52.282;5.960;2023-07-20T10:26:31;23.20;52.20
77613;DHT22;66777;52.282;5.960;2023-07-20T10:28:57;23.20;52.30
77613;DHT22;66777;52.282;5.960;2023-07-20T10:31:24;23.20;52.10
77613;DHT22;66777;52.282;5.960;2023-07-20T10:33:56;23.30;51.80
77613;DHT22;66777;52.282;5.960;2023-07-20T10:36:27;23.20;51.60
77613;DHT22;66777;52.282;5.960;2023-07-20T10:38:54;23.00;51.40
77613;DHT22;66777;52.282;5.960;2023-07-20T10:41:34;22.80;51.40
77613;DHT22;66777;52.282;5.960;2023-07-20T10:44:04;22.50;51.60
77613;DHT22;66777;52.282;5.960;2023-07-20T10:49:10;22.10;51.70
77613;DHT22;66777;52.282;5.960;2023-07-20T10:51:47;21.90;51.90
77613;DHT22;66777;52.282;5.960;2023-07-20T10:56:42;21.70;52.80
77613;DHT22;66777;52.282;5.960;2023-07-20T11:01:55;21.50;53.80
77613;DHT22;66777;52.282;5.960;2023-07-20T11:04:44;21.40;53.80
77613;DHT22;66777;52.282;5.960;2023-07-20T11:07:14;21.40;53.90
77613;DHT22;66777;52.282;5.960;2023-07-20T11:09:40;21.30;54.00
77613;DHT22;66777;52.282;5.960;2023-07-20T11:12:12;21.40;54.00
77613;DHT22;66777;52.282;5.960;2023-07-20T11:14:57;21.40;54.20
77613;DHT22;66777;52.282;5.960;2023-07-20T11:17:33;21.40;54.30
77613;DHT22;66777;52.282;5.960;2023-07-20T11:20:00;21.40;54.40
77613;DHT22;66777;52.282;5.960;2023-07-20T11:22:31;21.40;54.40
77613;DHT22;66777;52.282;5.960;2023-07-20T11:24:57;21.50;54.30
77613;DHT22;66777;52.282;5.960;2023-07-20T11:27:23;21.70;54.00
77613;DHT22;66777;52.282;5.960;2023-07-20T11:29:52;21.90;53.70
77613;DHT22;66777;52.282;5.960;2023-07-20T11:32:24;21.90;53.80
77613;DHT22;66777;52.282;5.960;2023-07-20T11:34:51;22.00;54.00
77613;DHT22;66777;52.282;5.960;2023-07-20T11:37:17;22.20;54.10
77613;DHT22;66777;52.282;5.960;2023-07-20T11:39:43;22.30;54.00
77613;DHT22;66777;52.282;5.960;2023-07-20T11:42:09;22.50;53.60
77613;DHT22;66777;52.282;5.960;2023-07-20T11:44:35;22.60;53.40
77613;DHT22;66777;52.282;5.960;2023-07-20T11:47:07;22.70;52.90
77613;DHT22;66777;52.282;5.960;2023-07-20T11:49:40;22.80;52.60
77613;DHT22;66777;52.282;5.960;2023-07-20T11:52:14;23.00;52.30
77613;DHT22;66777;52.282;5.960;2023-07-20T11:54:41;23.20;52.00
77613;DHT22;66777;52.282;5.960;2023-07-20T11:57:19;23.30;51.60
77613;DHT22;66777;52.282;5.960;2023-07-20T11:59:57;23.30;51.40
77613;DHT22;66777;52.282;5.960;2023-07-20T12:02:27;23.10;50.10
77613;DHT22;66777;52.282;5.960;2023-07-20T12:04:54;23.00;50.00
77613;DHT22;66777;52.282;5.960;2023-07-20T12:07:19;23.10;49.80
77613;DHT22;66777;52.282;5.960;2023-07-20T12:10:06;23.20;49.30
77613;DHT22;66777;52.282;5.960;2023-07-20T12:12:33;23.10;48.60
77613;DHT22;66777;52.282;5.960;2023-07-20T12:15:25;23.00;48.50
77613;DHT22;66777;52.282;5.960;2023-07-20T12:18:03;22.90;48.70
77613;DHT22;66777;52.282;5.960;2023-07-20T12:20:36;23.10;48.90
77613;DHT22;66777;52.282;5.960;2023-07-20T12:23:13;23.30;49.00
77613;DHT22;66777;52.282;5.960;2023-07-20T12:25:41;23.30;49.30
77613;DHT22;66777;52.282;5.960;2023-07-20T12:28:09;23.10;49.60
77613;DHT22;66777;52.282;5.960;2023-07-20T12:30:36;23.00;50.00
77613;DHT22;66777;52.282;5.960;2023-07-20T12:33:03;22.90;50.30
77613;DHT22;66777;52.282;5.960;2023-07-20T12:35:30;22.90;50.40
77613;DHT22;66777;52.282;5.960;2023-07-20T12:37:55;22.90;50.70
77613;DHT22;66777;52.282;5.960;2023-07-20T12:40:21;22.90;51.30
77613;DHT22;66777;52.282;5.960;2023-07-20T12:42:47;22.80;51.80
77613;DHT22;66777;52.282;5.960;2023-07-20T12:45:14;22.80;52.30
77613;DHT22;66777;52.282;5.960;2023-07-20T12:47:41;22.70;52.50
77613;DHT22;66777;52.282;5.960;2023-07-20T12:50:09;22.60;52.90
77613;DHT22;66777;52.282;5.960;2023-07-20T12:52:41;22.50;53.10
77613;DHT22;66777;52.282;5.960;2023-07-20T12:55:09;22.40;53.50
77613;DHT22;66777;52.282;5.960;2023-07-20T12:57:35;22.40;53.70
77613;DHT22;66777;52.282;5.960;2023-07-20T13:00:05;22.40;54.00
77613;DHT22;66777;52.282;5.960;2023-07-20T13:02:33;22.40;54.30
77613;DHT22;66777;52.282;5.960;2023-07-20T13:05:00;22.50;54.70
77613;DHT22;66777;52.282;5.960;2023-07-20T13:07:31;22.40;54.90
77613;DHT22;66777;52.282;5.960;2023-07-20T13:09:58;22.40;55.00
77613;DHT22;66777;52.282;5.960;2023-07-20T13:12:26;22.40;55.20
77613;DHT22;66777;52.282;5.960;2023-07-20T13:14:52;22.60;55.10
77613;DHT22;66777;52.282;5.960;2023-07-20T13:17:18;22.90;54.90
77613;DHT22;66777;52.282;5.960;2023-07-20T13:19:44;23.10;54.80
77613;DHT22;66777;52.282;5.960;2023-07-20T13:22:10;23.00;54.90
77613;DHT22;66777;52.282;5.960;2023-07-20T13:24:36;22.90;55.00
77613;DHT22;66777;52.282;5.960;2023-07-20T13:27:08;22.90;55.00
77613;DHT22;66777;52.282;5.960;2023-07-20T13:29:34;22.80;55.10
77613;DHT22;66777;52.282;5.960;2023-07-20T13:31:59;22.80;54.90
77613;DHT22;66777;52.282;5.960;2023-07-20T13:34:26;22.70;54.60
77613;DHT22;66777;52.282;5.960;2023-07-20T13:36:52;22.80;54.50
77613;DHT22;66777;52.282;5.960;2023-07-20T13:39:17;22.80;54.30
77613;DHT22;66777;52.282;5.960;2023-07-20T13:41:46;22.90;53.70
77613;DHT22;66777;52.282;5.960;2023-07-20T13:44:12;22.70;53.60
77613;DHT22;66777;52.282;5.960;2023-07-20T13:46:37;22.70;53.90
77613;DHT22;66777;52.282;5.960;2023-07-20T13:49:04;22.60;54.00
77613;DHT22;66777;52.282;5.960;2023-07-20T13:51:30;22.60;54.10
77613;DHT22;66777;52.282;5.960;2023-07-20T13:53:57;22.60;54.30
77613;DHT22;66777;52.282;5.960;2023-07-20T13:56:23;22.60;54.40
77613;DHT22;66777;52.282;5.960;2023-07-20T13:58:49;22.60;54.30
77613;DHT22;66777;52.282;5.960;2023-07-20T14:01:14;22.50;54.30
77613;DHT22;66777;52.282;5.960;2023-07-20T14:03:40;22.60;54.20
77613;DHT22;66777;52.282;5.960;2023-07-20T14:06:06;22.50;53.90
77613;DHT22;66777;52.282;5.960;2023-07-20T14:08:32;22.50;54.00
77613;DHT22;66777;52.282;5.960;2023-07-20T14:10:58;22.50;54.40
77613;DHT22;66777;52.282;5.960;2023-07-20T14:13:24;22.50;54.30
77613;DHT22;66777;52.282;5.960;2023-07-20T14:15:50;22.80;54.10
77613;DHT22;66777;52.282;5.960;2023-07-20T14:18:16;23.10;53.70
77613;DHT22;66777;52.282;5.960;2023-07-20T14:20:48;23.40;53.30
77613;DHT22;66777;52.282;5.960;2023-07-20T14:23:13;23.80;52.90
77613;DHT22;66777;52.282;5.960;2023-07-20T14:25:39;24.00;52.50
77613;DHT22;66777;52.282;5.960;2023-07-20T14:28:05;24.20;52.10
77613;DHT22;66777;52.282;5.960;2023-07-20T14:30:32;24.40;52.00
77613;DHT22;66777;52.282;5.960;2023-07-20T14:32:58;24.50;51.60
77613;DHT22;66777;52.282;5.960;2023-07-20T14:35:23;24.60;51.40
77613;DHT22;66777;52.282;5.960;2023-07-20T14:37:49;24.70;51.20
77613;DHT22;66777;52.282;5.960;2023-07-20T14:40:18;24.80;51.10
77613;DHT22;66777;52.282;5.960;2023-07-20T14:42:43;24.80;50.80
77613;DHT22;66777;52.282;5.960;2023-07-20T14:45:09;24.60;50.90
77613;DHT22;66777;52.282;5.960;2023-07-20T14:47:37;24.40;51.10
77613;DHT22;66777;52.282;5.960;2023-07-20T14:50:03;24.10;51.40
77613;DHT22;66777;52.282;5.960;2023-07-20T14:52:29;23.90;51.70
77613;DHT22;66777;52.282;5.960;2023-07-20T14:54:55;23.70;51.90
77613;DHT22;66777;52.282;5.960;2023-07-20T14:57:21;23.60;52.10
77613;DHT22;66777;52.282;5.960;2023-07-20T14:59:52;23.50;52.10
77613;DHT22;66777;52.282;5.960;2023-07-20T15:02:19;23.60;52.10
77613;DHT22;66777;52.282;5.960;2023-07-20T15:04:49;23.60;51.80
77613;DHT22;66777;52.282;5.960;2023-07-20T15:07:20;23.50;51.80
77613;DHT22;66777;52.282;5.960;2023-07-20T15:09:47;23.40;52.00
77613;DHT22;66777;52.282;5.960;2023-07-20T15:12:13;23.30;52.20
77613;DHT22;66777;52.282;5.960;2023-07-20T15:14:43;23.20;52.30
77613;DHT22;66777;52.282;5.960;2023-07-20T15:17:09;23.10;52.50
77613;DHT22;66777;52.282;5.960;2023-07-20T15:19:35;23.00;52.70
77613;DHT22;66777;52.282;5.960;2023-07-20T15:22:05;23.00;52.90
77613;DHT22;66777;52.282;5.960;2023-07-20T15:24:32;22.90;52.80
77613;DHT22;66777;52.282;5.960;2023-07-20T15:26:59;22.80;52.90
77613;DHT22;66777;52.282;5.960;2023-07-20T15:29:25;22.80;53.00
77613;DHT22;66777;52.282;5.960;2023-07-20T15:31:50;22.70;53.00
77613;DHT22;66777;52.282;5.960;2023-07-20T15:34:16;22.60;53.00
77613;DHT22;66777;52.282;5.960;2023-07-20T15:36:45;22.70;52.90
77613;DHT22;66777;52.282;5.960;2023-07-20T15:39:11;22.60;52.80
77613;DHT22;66777;52.282;5.960;2023-07-20T15:41:41;22.50;53.00
77613;DHT22;66777;52.282;5.960;2023-07-20T15:44:07;22.50;53.00
77613;DHT22;66777;52.282;5.960;2023-07-20T15:46:44;22.40;53.00
77613;DHT22;66777;52.282;5.960;2023-07-20T15:49:10;22.40;53.00
77613;DHT22;66777;52.282;5.960;2023-07-20T15:51:36;22.50;53.00
77613;DHT22;66777;52.282;5.960;2023-07-20T15:54:04;22.60;52.90